createdAt,value
2022-12-15T00:00:11.748Z,10.56
2022-12-15T00:02:57.706Z,10.54
2022-12-15T00:05:44.008Z,10.56
2022-12-15T00:08:36.106Z,10.56
2022-12-15T00:11:23.734Z,10.57
2022-12-15T00:14:09.741Z,10.56
2022-12-15T00:16:55.431Z,10.57
2022-12-15T00:19:41.527Z,10.57
2022-12-15T00:22:27.428Z,10.57
2022-12-15T00:25:13.274Z,10.59
2022-12-15T00:28:00.644Z,10.56
2022-12-15T00:30:50.094Z,10.57
2022-12-15T00:33:36.182Z,10.57
2022-12-15T00:36:22.816Z,10.58
2022-12-15T00:38:51.407Z,10.57
2022-12-15T00:41:20.024Z,10.56
2022-12-15T00:43:49.959Z,10.58
2022-12-15T00:46:35.847Z,10.58
2022-12-15T00:49:24.469Z,10.57
2022-12-15T00:52:10.929Z,10.59
2022-12-15T00:54:57.058Z,10.59
2022-12-15T00:57:42.962Z,10.57
2022-12-15T01:00:31.848Z,10.59
2022-12-15T01:03:18.329Z,10.59
2022-12-15T01:06:04.444Z,10.58
2022-12-15T01:08:50.340Z,10.61
2022-12-15T01:11:36.152Z,10.60
2022-12-15T01:14:22.191Z,10.61
2022-12-15T01:17:09.455Z,10.61
2022-12-15T01:19:55.244Z,10.60
2022-12-15T01:22:24.529Z,10.60
2022-12-15T01:24:53.031Z,10.61
2022-12-15T01:27:21.522Z,10.60
2022-12-15T01:29:50.375Z,10.61
2022-12-15T01:32:20.394Z,10.59
2022-12-15T01:34:48.988Z,10.60
2022-12-15T01:37:17.561Z,10.61
2022-12-15T01:40:03.779Z,10.61
2022-12-15T01:42:32.509Z,10.62
2022-12-15T01:45:37.898Z,10.60
2022-12-15T01:48:10.963Z,10.60
2022-12-15T01:50:42.399Z,10.62
2022-12-15T01:53:12.010Z,10.60
2022-12-15T01:55:42.080Z,10.60
2022-12-15T01:58:12.397Z,10.59
2022-12-15T02:00:41.112Z,10.62
2022-12-15T02:03:11.713Z,10.61
2022-12-15T02:05:41.213Z,10.62
2022-12-15T02:08:10.106Z,10.60
2022-12-15T02:10:48.740Z,10.61
2022-12-15T02:13:20.885Z,10.60
2022-12-15T02:15:51.312Z,10.59
2022-12-15T02:18:23.761Z,10.61
2022-12-15T02:20:54.698Z,10.61
2022-12-15T02:24:00.866Z,10.60
2022-12-15T02:27:02.677Z,10.61
2022-12-15T02:29:51.689Z,10.60
2022-12-15T02:32:23.455Z,10.61
2022-12-15T02:34:55.815Z,10.60
2022-12-15T02:37:29.020Z,10.60
2022-12-15T02:39:57.499Z,10.60
2022-12-15T02:42:26.652Z,10.60
2022-12-15T02:44:57.182Z,10.60
2022-12-15T02:47:33.925Z,10.59
2022-12-15T02:50:23.046Z,10.60
2022-12-15T02:53:00.317Z,10.60
2022-12-15T02:55:35.914Z,10.59
2022-12-15T02:58:08.872Z,10.59
2022-12-15T03:00:40.415Z,10.59
2022-12-15T03:03:10.528Z,10.59
2022-12-15T03:05:39.232Z,10.59
2022-12-15T03:08:09.194Z,10.59
2022-12-15T03:10:37.668Z,10.58
2022-12-15T03:13:06.137Z,10.59
2022-12-15T03:15:35.908Z,10.58
2022-12-15T03:18:04.756Z,10.58
2022-12-15T03:20:34.653Z,10.58
2022-12-15T03:23:03.251Z,10.60
2022-12-15T03:25:31.811Z,10.59
2022-12-15T03:28:00.894Z,10.59
2022-12-15T03:30:29.463Z,10.59
2022-12-15T03:32:57.937Z,10.59
2022-12-15T03:35:26.435Z,10.59
2022-12-15T03:37:56.236Z,10.59
2022-12-15T03:40:24.725Z,10.60
2022-12-15T03:42:53.202Z,10.59
2022-12-15T03:45:23.624Z,10.60
2022-12-15T03:47:53.014Z,10.58
2022-12-15T03:50:22.896Z,10.58
2022-12-15T03:52:52.540Z,10.57
2022-12-15T03:55:22.833Z,10.57
2022-12-15T03:57:52.103Z,10.57
2022-12-15T04:00:21.764Z,10.57
2022-12-15T04:02:52.357Z,10.58
2022-12-15T04:05:22.716Z,10.58
2022-12-15T04:07:51.363Z,10.57
2022-12-15T04:10:19.986Z,10.56
2022-12-15T04:12:49.898Z,10.56
2022-12-15T04:15:18.443Z,10.55
2022-12-15T04:17:46.923Z,10.55
2022-12-15T04:20:15.423Z,10.54
2022-12-15T04:22:45.772Z,10.56
2022-12-15T04:25:33.650Z,10.52
2022-12-15T04:28:21.255Z,10.54
2022-12-15T04:31:10.366Z,10.55
2022-12-15T04:33:59.249Z,10.54
2022-12-15T04:36:45.641Z,10.52
2022-12-15T04:39:31.941Z,10.53
2022-12-15T04:42:19.787Z,10.52
2022-12-15T04:45:07.751Z,10.51
2022-12-15T04:47:53.741Z,10.52
2022-12-15T04:50:39.769Z,10.51
2022-12-15T04:53:26.622Z,10.51
2022-12-15T04:56:17.958Z,10.51
2022-12-15T04:59:04.964Z,10.51
2022-12-15T05:01:52.733Z,10.51
2022-12-15T05:04:38.648Z,10.50
2022-12-15T05:07:24.697Z,10.50
2022-12-15T05:10:14.868Z,10.48
2022-12-15T05:13:01.489Z,10.48
2022-12-15T05:15:47.454Z,10.50
2022-12-15T05:18:34.959Z,10.48
2022-12-15T05:21:20.809Z,10.48
2022-12-15T05:24:06.915Z,10.48
2022-12-15T05:26:53.511Z,10.47
2022-12-15T05:29:39.525Z,10.49
2022-12-15T05:32:08.616Z,10.48
2022-12-15T05:34:38.830Z,10.47
2022-12-15T05:37:07.705Z,10.46
2022-12-15T05:39:36.674Z,10.46
2022-12-15T05:42:05.602Z,10.46
2022-12-15T05:44:34.155Z,10.44
2022-12-15T05:47:02.727Z,10.46
2022-12-15T05:49:31.293Z,10.47
2022-12-15T05:52:01.134Z,10.47
2022-12-15T05:54:29.719Z,10.45
2022-12-15T05:56:58.419Z,10.46
2022-12-15T05:59:26.978Z,10.46
2022-12-15T06:01:55.564Z,10.46
2022-12-15T06:04:24.343Z,10.46
2022-12-15T06:06:53.275Z,10.46
2022-12-15T06:09:23.753Z,10.46
2022-12-15T06:11:52.289Z,10.45
2022-12-15T06:14:21.112Z,10.44
2022-12-15T06:16:51.706Z,10.45
2022-12-15T06:19:21.106Z,10.44
2022-12-15T06:21:49.659Z,10.42
2022-12-15T06:24:18.574Z,10.43
2022-12-15T06:26:49.883Z,10.42
2022-12-15T06:29:19.450Z,10.44
2022-12-15T06:31:48.267Z,10.42
2022-12-15T06:34:18.019Z,10.42
2022-12-15T06:36:46.934Z,10.43
2022-12-15T06:39:16.495Z,10.43
2022-12-15T06:41:45.308Z,10.42
2022-12-15T06:44:16.342Z,10.42
2022-12-15T06:46:46.064Z,10.43
2022-12-15T06:49:15.089Z,10.43
2022-12-15T06:51:45.005Z,10.42
2022-12-15T06:54:13.887Z,10.41
2022-12-15T06:56:42.573Z,10.41
2022-12-15T06:59:12.114Z,10.43
2022-12-15T07:01:43.373Z,10.42
2022-12-15T07:04:12.415Z,10.42
2022-12-15T07:06:42.323Z,10.41
2022-12-15T07:09:18.967Z,10.43
2022-12-15T07:11:51.026Z,10.42
2022-12-15T07:14:23.474Z,10.43
2022-12-15T07:16:55.298Z,10.43
2022-12-15T07:19:27.204Z,10.43
2022-12-15T07:21:59.482Z,10.43
2022-12-15T07:24:33.231Z,10.42
2022-12-15T07:27:07.053Z,10.43
2022-12-15T07:29:38.491Z,10.42
2022-12-15T07:32:10.017Z,10.43
2022-12-15T07:34:40.092Z,10.44
2022-12-15T07:37:10.261Z,10.43
2022-12-15T07:39:42.179Z,10.44
2022-12-15T07:42:11.243Z,10.45
2022-12-15T07:44:40.009Z,10.42
2022-12-15T07:47:10.199Z,10.46
2022-12-15T07:49:39.008Z,10.43
2022-12-15T07:52:07.775Z,10.47
2022-12-15T07:54:36.547Z,10.46
2022-12-15T07:57:07.442Z,10.45
2022-12-15T07:59:36.270Z,10.47
2022-12-15T08:02:05.722Z,10.46
2022-12-15T08:04:35.966Z,10.47
2022-12-15T08:07:04.743Z,10.47
2022-12-15T08:09:33.531Z,10.48
2022-12-15T08:12:02.622Z,10.49
2022-12-15T08:14:32.218Z,10.48
2022-12-15T08:17:01.060Z,10.46
2022-12-15T08:19:30.773Z,10.50
2022-12-15T08:22:00.817Z,10.48
2022-12-15T08:24:29.467Z,10.50
2022-12-15T08:26:58.230Z,10.49
2022-12-15T08:32:16.289Z,10.51
2022-12-15T08:34:47.317Z,10.51
2022-12-15T08:37:17.951Z,10.50
2022-12-15T08:39:48.099Z,10.52
2022-12-15T08:42:17.071Z,10.52
2022-12-15T08:44:49.573Z,10.53
2022-12-15T08:47:18.609Z,10.54
2022-12-15T08:49:48.670Z,10.54
2022-12-15T08:52:18.758Z,10.54
2022-12-15T08:54:47.459Z,10.53
2022-12-15T08:57:16.356Z,10.54
2022-12-15T08:59:45.012Z,10.57
2022-12-15T09:02:14.142Z,10.57
2022-12-15T09:04:44.187Z,10.59
2022-12-15T09:07:13.660Z,10.58
2022-12-15T09:09:44.646Z,10.57
2022-12-15T09:12:14.308Z,10.60
2022-12-15T09:14:43.241Z,10.60
2022-12-15T09:17:12.795Z,10.61
2022-12-15T09:19:41.541Z,10.61
2022-12-15T09:22:10.292Z,10.64
2022-12-15T09:24:39.027Z,10.65
2022-12-15T09:27:09.086Z,10.71
2022-12-15T09:29:37.779Z,10.76
2022-12-15T09:32:13.648Z,10.78
2022-12-15T09:34:43.144Z,10.82
2022-12-15T09:37:11.790Z,10.79
2022-12-15T09:39:40.559Z,10.78
2022-12-15T09:42:24.562Z,10.77
2022-12-15T09:44:59.897Z,10.79
2022-12-15T09:47:33.477Z,10.80
2022-12-15T09:50:04.495Z,10.83
2022-12-15T09:52:35.681Z,10.84
2022-12-15T09:55:18.906Z,10.84
2022-12-15T09:57:53.491Z,10.84
2022-12-15T10:00:28.468Z,10.83
2022-12-15T10:03:27.019Z,10.84
2022-12-15T10:06:16.690Z,10.84
2022-12-15T10:08:50.789Z,10.85
2022-12-15T10:11:37.297Z,10.87
2022-12-15T10:14:13.244Z,10.88
2022-12-15T10:16:52.774Z,10.86
2022-12-15T10:19:27.501Z,10.87
2022-12-15T10:21:57.785Z,10.88
2022-12-15T10:27:42.407Z,10.89
2022-12-15T10:30:14.622Z,10.90
2022-12-15T10:32:51.718Z,10.90
2022-12-15T10:35:26.660Z,10.91
2022-12-15T10:37:56.015Z,10.91
2022-12-15T10:40:49.988Z,10.91
2022-12-15T10:43:28.076Z,10.90
2022-12-15T10:46:14.928Z,10.91
2022-12-15T10:48:48.413Z,10.90
2022-12-15T10:51:22.685Z,10.90
2022-12-15T10:53:53.858Z,10.91
2022-12-15T10:56:32.708Z,10.90
2022-12-15T10:59:04.499Z,10.92
2022-12-15T11:01:35.911Z,10.92
2022-12-15T11:04:05.107Z,10.93
2022-12-15T11:06:36.820Z,10.93
2022-12-15T11:09:11.037Z,10.94
2022-12-15T11:12:13.820Z,10.93
2022-12-15T11:14:45.808Z,10.93
2022-12-15T11:17:19.003Z,10.94
2022-12-15T11:19:56.764Z,10.93
2022-12-15T11:22:35.282Z,10.93
2022-12-15T11:25:07.622Z,10.95
2022-12-15T11:27:39.009Z,10.95
2022-12-15T11:30:14.432Z,10.96
2022-12-15T11:32:48.860Z,10.96
2022-12-15T11:35:21.242Z,10.96
2022-12-15T11:37:50.910Z,10.96
2022-12-15T11:40:36.369Z,10.97
2022-12-15T11:43:18.416Z,10.98
2022-12-15T11:45:55.587Z,10.99
2022-12-15T11:48:30.100Z,10.99
2022-12-15T11:51:00.972Z,10.99
2022-12-15T11:53:45.879Z,10.99
2022-12-15T11:56:26.096Z,10.99
2022-12-15T11:59:27.569Z,11.00
2022-12-15T12:02:08.702Z,10.98
2022-12-15T12:04:44.649Z,10.98
2022-12-15T12:07:23.382Z,10.99
2022-12-15T12:10:04.496Z,10.98
2022-12-15T12:12:39.205Z,10.99
2022-12-15T12:15:21.741Z,10.99
2022-12-15T12:17:53.609Z,11.00
2022-12-15T12:20:26.111Z,11.01
2022-12-15T12:23:02.410Z,11.00
2022-12-15T12:25:34.831Z,11.00
2022-12-15T12:28:04.964Z,10.99
2022-12-15T12:30:39.125Z,10.99
2022-12-15T12:33:14.129Z,10.99
2022-12-15T12:35:46.888Z,10.99
2022-12-15T12:38:20.197Z,10.99
2022-12-15T12:40:56.997Z,10.99
2022-12-15T12:43:33.328Z,10.97
2022-12-15T12:46:06.178Z,10.99
2022-12-15T12:48:37.664Z,10.98
2022-12-15T12:51:20.755Z,10.97
2022-12-15T12:53:50.376Z,11.00
2022-12-15T12:56:31.086Z,11.00
2022-12-15T12:58:59.594Z,10.97
2022-12-15T13:01:31.889Z,10.99
2022-12-15T13:04:12.821Z,10.99
2022-12-15T13:07:01.323Z,11.00
2022-12-15T13:09:39.653Z,11.00
2022-12-15T13:12:52.837Z,11.00
2022-12-15T13:15:37.331Z,11.00
2022-12-15T13:18:14.931Z,11.01
2022-12-15T13:20:44.698Z,11.01
2022-12-15T13:23:41.348Z,11.02
2022-12-15T13:26:14.627Z,11.01
2022-12-15T13:28:45.988Z,11.02
2022-12-15T13:31:30.365Z,11.01
2022-12-15T13:34:15.409Z,11.02
2022-12-15T13:36:54.515Z,11.03
2022-12-15T13:39:57.346Z,11.02
2022-12-15T13:42:37.590Z,11.01
2022-12-15T13:45:51.493Z,11.03
2022-12-15T13:48:27.108Z,11.01
2022-12-15T13:51:02.571Z,11.01
2022-12-15T13:53:38.266Z,11.02
2022-12-15T13:56:27.811Z,11.01
2022-12-15T13:59:02.144Z,11.01
2022-12-15T14:01:33.487Z,11.01
2022-12-15T14:04:08.061Z,11.02
2022-12-15T14:06:39.175Z,11.03
2022-12-15T14:09:10.923Z,11.01
2022-12-15T14:11:57.874Z,11.02
2022-12-15T14:14:27.788Z,11.01
2022-12-15T14:16:59.114Z,11.00
2022-12-15T14:19:32.137Z,11.01
2022-12-15T14:22:05.118Z,11.02
2022-12-15T14:24:39.892Z,11.01
2022-12-15T14:27:10.367Z,11.01
2022-12-15T14:29:38.821Z,11.02
2022-12-15T14:32:07.336Z,11.05
2022-12-15T14:34:39.278Z,11.07
2022-12-15T14:37:09.931Z,11.05
2022-12-15T14:39:41.980Z,11.04
2022-12-15T14:42:17.640Z,11.03
2022-12-15T14:44:49.981Z,11.05
2022-12-15T14:47:22.244Z,11.03
2022-12-15T14:49:51.499Z,11.05
2022-12-15T14:52:27.888Z,11.04
2022-12-15T14:54:57.975Z,11.03
2022-12-15T14:57:29.475Z,11.01
2022-12-15T14:59:57.934Z,11.01
2022-12-15T15:02:28.417Z,11.01
2022-12-15T15:05:03.163Z,11.02
2022-12-15T15:07:32.801Z,11.02
2022-12-15T15:10:01.876Z,11.02
2022-12-15T15:12:43.234Z,11.02
2022-12-15T15:15:16.417Z,11.02
2022-12-15T15:17:48.697Z,11.00
2022-12-15T15:20:21.477Z,11.01
2022-12-15T15:23:05.637Z,11.02
2022-12-15T15:25:39.878Z,11.02
2022-12-15T15:28:23.346Z,11.02
2022-12-15T15:30:56.015Z,11.01
2022-12-15T15:33:25.751Z,11.02
2022-12-15T15:35:56.214Z,11.00
2022-12-15T15:38:27.079Z,10.98
2022-12-15T15:40:57.152Z,10.99
2022-12-15T15:43:30.077Z,10.99
2022-12-15T15:46:02.219Z,10.99
2022-12-15T15:48:33.751Z,10.99
2022-12-15T15:51:03.005Z,10.99
2022-12-15T15:53:34.003Z,10.97
2022-12-15T15:56:03.781Z,10.99
2022-12-15T15:58:34.073Z,10.99
2022-12-15T16:01:06.759Z,11.00
2022-12-15T16:03:38.260Z,11.06
2022-12-15T16:06:07.829Z,11.06
2022-12-15T16:08:37.652Z,11.05
2022-12-15T16:11:07.391Z,11.03
2022-12-15T16:13:37.260Z,11.02
2022-12-15T16:16:06.547Z,11.00
2022-12-15T16:18:35.588Z,11.02
2022-12-15T16:21:04.572Z,11.01
2022-12-15T16:23:33.021Z,11.00
2022-12-15T16:26:01.567Z,11.00
2022-12-15T16:28:31.878Z,11.01
2022-12-15T16:31:02.343Z,10.99
2022-12-15T16:33:30.894Z,10.98
2022-12-15T16:35:59.501Z,10.99
2022-12-15T16:38:30.264Z,10.99
2022-12-15T16:41:00.268Z,10.99
2022-12-15T16:43:34.549Z,10.99
2022-12-15T16:46:07.310Z,10.99
2022-12-15T16:48:36.724Z,10.99
2022-12-15T16:51:07.993Z,11.00
2022-12-15T16:53:39.880Z,11.00
2022-12-15T16:56:09.620Z,10.99
2022-12-15T16:58:38.053Z,10.99
2022-12-15T17:01:08.041Z,10.99
2022-12-15T17:03:36.659Z,10.99
2022-12-15T17:06:07.898Z,10.99
2022-12-15T17:08:40.003Z,11.00
2022-12-15T17:11:11.122Z,10.98
2022-12-15T17:13:45.614Z,11.00
2022-12-15T17:16:15.901Z,10.99
2022-12-15T17:18:44.781Z,10.99
2022-12-15T17:21:17.824Z,10.99
2022-12-15T17:23:47.700Z,11.00
2022-12-15T17:26:29.212Z,10.99
2022-12-15T17:29:01.031Z,11.07
2022-12-15T17:31:35.768Z,11.09
2022-12-15T17:34:22.859Z,11.07
2022-12-15T17:36:51.376Z,11.03
2022-12-15T17:39:20.868Z,11.04
2022-12-15T17:42:00.065Z,11.02
2022-12-15T17:44:33.497Z,11.02
2022-12-15T17:47:06.046Z,11.01
2022-12-15T17:49:37.492Z,11.01
2022-12-15T17:52:14.856Z,11.01
2022-12-15T17:54:43.446Z,11.02
2022-12-15T17:57:12.907Z,11.02
2022-12-15T17:59:41.588Z,11.02
2022-12-15T18:02:13.366Z,11.03
2022-12-15T18:04:42.250Z,11.02
2022-12-15T18:07:16.082Z,11.02
2022-12-15T18:09:44.778Z,11.03
2022-12-15T18:12:19.357Z,11.02
2022-12-15T18:14:48.021Z,11.03
2022-12-15T18:17:17.855Z,11.02
2022-12-15T18:19:46.473Z,11.04
2022-12-15T18:22:17.862Z,11.03
2022-12-15T18:24:46.595Z,11.02
2022-12-15T18:27:21.553Z,11.03
2022-12-15T18:29:53.523Z,11.02
2022-12-15T18:32:25.766Z,11.03
2022-12-15T18:34:54.679Z,11.03
2022-12-15T18:37:24.956Z,11.03
2022-12-15T18:39:55.363Z,11.02
2022-12-15T18:42:25.800Z,11.03
2022-12-15T18:44:54.390Z,11.03
2022-12-15T18:47:25.064Z,11.04
2022-12-15T18:49:53.747Z,11.04
2022-12-15T18:52:26.476Z,11.05
2022-12-15T18:54:57.376Z,11.06
2022-12-15T18:57:29.890Z,11.04
2022-12-15T18:59:59.511Z,11.04
2022-12-15T19:02:29.908Z,11.03
2022-12-15T19:04:58.951Z,11.03
2022-12-15T19:07:27.760Z,11.04
2022-12-15T19:09:56.340Z,11.04
2022-12-15T19:12:25.637Z,11.04
2022-12-15T19:14:55.247Z,11.04
2022-12-15T19:17:42.791Z,11.05
2022-12-15T19:20:36.260Z,11.07
2022-12-15T19:23:05.558Z,11.05
2022-12-15T19:25:34.586Z,11.06
2022-12-15T19:28:03.223Z,11.06
2022-12-15T19:30:38.446Z,11.05
2022-12-15T19:33:08.792Z,11.04
2022-12-15T19:35:39.204Z,11.04
2022-12-15T19:38:08.502Z,11.07
2022-12-15T19:40:37.934Z,11.07
2022-12-15T19:43:06.574Z,11.07
2022-12-15T19:45:35.314Z,11.07
2022-12-15T19:48:04.383Z,11.10
2022-12-15T19:50:36.247Z,11.07
2022-12-15T19:53:08.389Z,11.08
2022-12-15T19:55:37.587Z,11.08
2022-12-15T19:58:26.757Z,11.09
2022-12-15T20:00:57.715Z,11.08
2022-12-15T20:03:26.668Z,11.08
2022-12-15T20:05:56.480Z,11.08
2022-12-15T20:08:28.299Z,11.10
2022-12-15T20:10:57.497Z,11.10
2022-12-15T20:13:26.980Z,11.09
2022-12-15T20:15:56.289Z,11.10
2022-12-15T20:18:24.829Z,11.10
2022-12-15T20:20:53.450Z,11.11
2022-12-15T20:23:26.010Z,11.09
2022-12-15T20:25:56.845Z,11.10
2022-12-15T20:28:27.382Z,11.10
2022-12-15T20:30:57.162Z,11.10
2022-12-15T20:33:25.817Z,11.10
2022-12-15T20:35:55.062Z,11.10
2022-12-15T20:38:29.923Z,11.11
2022-12-15T20:41:00.543Z,11.11
2022-12-15T20:43:32.350Z,11.10
2022-12-15T20:46:04.677Z,11.10
2022-12-15T20:48:36.549Z,11.11
2022-12-15T20:51:09.517Z,11.11
2022-12-15T20:53:38.950Z,11.13
2022-12-15T20:56:09.205Z,11.12
2022-12-15T20:58:40.686Z,11.12
2022-12-15T21:01:19.038Z,11.13
2022-12-15T21:03:48.265Z,11.13
2022-12-15T21:06:16.972Z,11.15
2022-12-15T21:08:45.813Z,11.14
2022-12-15T21:11:19.120Z,11.14
2022-12-15T21:13:49.296Z,11.15
2022-12-15T21:16:19.662Z,11.14
2022-12-15T21:19:19.881Z,11.13
2022-12-15T21:21:42.496Z,11.14
2022-12-15T21:24:16.107Z,11.15
2022-12-15T21:26:46.275Z,11.15
2022-12-15T21:29:17.805Z,11.15
2022-12-15T21:31:46.817Z,11.16
2022-12-15T21:34:15.894Z,11.16
2022-12-15T21:36:47.032Z,11.16
2022-12-15T21:39:21.260Z,11.17
2022-12-15T21:41:51.243Z,11.16
2022-12-15T21:44:20.338Z,11.15
2022-12-15T21:46:49.068Z,11.16
2022-12-15T21:49:18.488Z,11.16
2022-12-15T21:51:49.546Z,11.16
2022-12-15T21:54:27.367Z,11.16
2022-12-15T21:56:59.451Z,11.17
2022-12-15T21:59:30.008Z,11.18
2022-12-15T22:01:58.859Z,11.18
2022-12-15T22:04:30.118Z,11.17
2022-12-15T22:06:58.599Z,11.17
2022-12-15T22:09:27.082Z,11.16
2022-12-15T22:11:58.210Z,11.18
2022-12-15T22:14:29.583Z,11.17
2022-12-15T22:16:58.567Z,11.18
2022-12-15T22:19:27.234Z,11.19
2022-12-15T22:21:55.703Z,11.19
2022-12-15T22:24:24.313Z,11.19
2022-12-15T22:26:53.053Z,11.18
2022-12-15T22:29:24.008Z,11.20
2022-12-15T22:31:52.488Z,11.19
2022-12-15T22:34:25.035Z,11.19
2022-12-15T22:39:42.047Z,11.22
2022-12-15T22:42:12.659Z,11.22
2022-12-15T22:44:42.445Z,11.22
2022-12-15T22:47:12.011Z,11.20
2022-12-15T22:49:41.797Z,11.22
2022-12-15T22:52:16.991Z,11.22
2022-12-15T22:54:46.224Z,11.22
2022-12-15T22:57:21.302Z,11.22
2022-12-15T22:59:55.106Z,11.23
2022-12-15T23:02:23.684Z,11.23
2022-12-15T23:04:52.296Z,11.23
2022-12-15T23:07:21.004Z,11.24
2022-12-15T23:10:09.678Z,11.23
2022-12-15T23:12:37.155Z,11.24
2022-12-15T23:15:26.070Z,11.26
2022-12-15T23:17:54.742Z,11.25
2022-12-15T23:20:23.589Z,11.24
2022-12-15T23:22:51.994Z,11.25
2022-12-15T23:25:20.567Z,11.26
2022-12-15T23:27:49.250Z,11.28
2022-12-15T23:30:19.285Z,11.26
2022-12-15T23:32:48.037Z,11.26
2022-12-15T23:35:16.981Z,11.28
2022-12-15T23:37:45.540Z,11.26
2022-12-15T23:40:19.868Z,11.26
2022-12-15T23:42:48.592Z,11.26
2022-12-15T23:45:19.130Z,11.27
2022-12-15T23:47:47.673Z,11.27
2022-12-15T23:50:16.217Z,11.28
2022-12-15T23:52:44.772Z,11.28
2022-12-15T23:55:13.271Z,11.28
2022-12-15T23:57:41.827Z,11.28
